sensor_id;sensor_type;location;lat;lon;timestamp;P1;durP1;ratioP1;P2;durP2;ratioP2
66830;SDS011;53739;44.224;22.528;2023-06-14T00:00:37;30.67;;;9.18;;
66830;SDS011;53739;44.224;22.528;2023-06-14T00:03:09;18.02;;;10.23;;
66830;SDS011;53739;44.224;22.528;2023-06-14T00:05:36;14.80;;;9.88;;
66830;SDS011;53739;44.224;22.528;2023-06-14T00:08:10;16.38;;;9.70;;
66830;SDS011;53739;44.224;22.528;2023-06-14T00:10:36;14.38;;;8.32;;
66830;SDS011;53739;44.224;22.528;2023-06-14T00:13:04;21.23;;;10.18;;
66830;SDS011;53739;44.224;22.528;2023-06-14T00:15:33;17.20;;;9.73;;
66830;SDS011;53739;44.224;22.528;2023-06-14T00:17:59;15.52;;;9.13;;
66830;SDS011;53739;44.224;22.528;2023-06-14T00:20:28;14.68;;;8.82;;
66830;SDS011;53739;44.224;22.528;2023-06-14T00:22:56;22.15;;;9.77;;
66830;SDS011;53739;44.224;22.528;2023-06-14T00:25:22;12.02;;;10.02;;
66830;SDS011;53739;44.224;22.528;2023-06-14T00:27:50;18.15;;;10.25;;
66830;SDS011;53739;44.224;22.528;2023-06-14T00:30:17;18.70;;;10.07;;
66830;SDS011;53739;44.224;22.528;2023-06-14T00:32:43;25.23;;;10.32;;
66830;SDS011;53739;44.224;22.528;2023-06-14T00:35:10;22.02;;;9.85;;
66830;SDS011;53739;44.224;22.528;2023-06-14T00:37:37;17.70;;;9.18;;
66830;SDS011;53739;44.224;22.528;2023-06-14T00:40:03;16.55;;;10.95;;
66830;SDS011;53739;44.224;22.528;2023-06-14T00:42:30;17.33;;;12.10;;
66830;SDS011;53739;44.224;22.528;2023-06-14T00:44:56;17.90;;;10.35;;
66830;SDS011;53739;44.224;22.528;2023-06-14T00:47:22;19.25;;;10.63;;
66830;SDS011;53739;44.224;22.528;2023-06-14T00:49:51;15.02;;;10.43;;
66830;SDS011;53739;44.224;22.528;2023-06-14T00:52:19;18.67;;;10.90;;
66830;SDS011;53739;44.224;22.528;2023-06-14T00:54:46;22.15;;;11.30;;
66830;SDS011;53739;44.224;22.528;2023-06-14T00:57:12;18.17;;;9.98;;
66830;SDS011;53739;44.224;22.528;2023-06-14T00:59:42;14.52;;;10.50;;
66830;SDS011;53739;44.224;22.528;2023-06-14T01:02:09;14.35;;;9.52;;
66830;SDS011;53739;44.224;22.528;2023-06-14T01:04:36;20.85;;;11.25;;
66830;SDS011;53739;44.224;22.528;2023-06-14T01:07:51;25.83;;;10.80;;
66830;SDS011;53739;44.224;22.528;2023-06-14T01:12:43;14.40;;;11.00;;
66830;SDS011;53739;44.224;22.528;2023-06-14T01:15:23;16.98;;;11.02;;
66830;SDS011;53739;44.224;22.528;2023-06-14T01:17:50;16.25;;;11.45;;
66830;SDS011;53739;44.224;22.528;2023-06-14T01:20:19;21.15;;;12.10;;
66830;SDS011;53739;44.224;22.528;2023-06-14T01:22:53;22.88;;;12.88;;
66830;SDS011;53739;44.224;22.528;2023-06-14T01:25:19;15.48;;;12.10;;
66830;SDS011;53739;44.224;22.528;2023-06-14T01:28:06;16.98;;;12.50;;
66830;SDS011;53739;44.224;22.528;2023-06-14T01:30:38;22.33;;;13.27;;
66830;SDS011;53739;44.224;22.528;2023-06-14T01:33:13;15.05;;;10.77;;
66830;SDS011;53739;44.224;22.528;2023-06-14T01:35:42;13.05;;;10.00;;
66830;SDS011;53739;44.224;22.528;2023-06-14T01:38:08;16.23;;;10.27;;
66830;SDS011;53739;44.224;22.528;2023-06-14T01:40:35;15.13;;;10.52;;
66830;SDS011;53739;44.224;22.528;2023-06-14T01:43:01;14.07;;;10.35;;
66830;SDS011;53739;44.224;22.528;2023-06-14T01:45:29;15.48;;;10.60;;
66830;SDS011;53739;44.224;22.528;2023-06-14T01:47:55;30.25;;;9.43;;
66830;SDS011;53739;44.224;22.528;2023-06-14T01:50:21;19.88;;;12.38;;
66830;SDS011;53739;44.224;22.528;2023-06-14T01:52:47;22.90;;;11.32;;
66830;SDS011;53739;44.224;22.528;2023-06-14T01:55:13;20.38;;;11.57;;
66830;SDS011;53739;44.224;22.528;2023-06-14T01:57:39;16.35;;;10.65;;
66830;SDS011;53739;44.224;22.528;2023-06-14T02:00:05;16.58;;;11.52;;
66830;SDS011;53739;44.224;22.528;2023-06-14T02:02:33;18.10;;;10.38;;
66830;SDS011;53739;44.224;22.528;2023-06-14T02:04:59;17.60;;;11.32;;
66830;SDS011;53739;44.224;22.528;2023-06-14T02:07:25;18.38;;;11.32;;
66830;SDS011;53739;44.224;22.528;2023-06-14T02:09:51;13.48;;;10.13;;
66830;SDS011;53739;44.224;22.528;2023-06-14T02:12:17;24.10;;;10.90;;
66830;SDS011;53739;44.224;22.528;2023-06-14T02:14:43;16.80;;;11.45;;
66830;SDS011;53739;44.224;22.528;2023-06-14T02:17:09;24.77;;;12.10;;
66830;SDS011;53739;44.224;22.528;2023-06-14T02:19:35;15.20;;;10.77;;
66830;SDS011;53739;44.224;22.528;2023-06-14T02:22:01;19.48;;;10.48;;
66830;SDS011;53739;44.224;22.528;2023-06-14T02:24:27;16.40;;;10.15;;
66830;SDS011;53739;44.224;22.528;2023-06-14T02:26:53;20.00;;;11.40;;
66830;SDS011;53739;44.224;22.528;2023-06-14T02:29:19;25.05;;;11.45;;
66830;SDS011;53739;44.224;22.528;2023-06-14T02:31:44;20.45;;;10.05;;
66830;SDS011;53739;44.224;22.528;2023-06-14T02:34:13;28.13;;;10.48;;
66830;SDS011;53739;44.224;22.528;2023-06-14T02:36:41;20.73;;;11.02;;
66830;SDS011;53739;44.224;22.528;2023-06-14T02:39:10;15.65;;;10.10;;
66830;SDS011;53739;44.224;22.528;2023-06-14T02:41:36;19.27;;;10.38;;
66830;SDS011;53739;44.224;22.528;2023-06-14T02:44:02;16.05;;;10.57;;
66830;SDS011;53739;44.224;22.528;2023-06-14T02:46:28;15.85;;;11.18;;
66830;SDS011;53739;44.224;22.528;2023-06-14T02:48:54;17.58;;;11.75;;
66830;SDS011;53739;44.224;22.528;2023-06-14T02:51:20;17.10;;;11.40;;
66830;SDS011;53739;44.224;22.528;2023-06-14T02:53:46;14.57;;;11.20;;
66830;SDS011;53739;44.224;22.528;2023-06-14T02:56:13;14.85;;;10.70;;
66830;SDS011;53739;44.224;22.528;2023-06-14T02:58:39;14.27;;;10.93;;
66830;SDS011;53739;44.224;22.528;2023-06-14T03:01:05;24.05;;;10.82;;
66830;SDS011;53739;44.224;22.528;2023-06-14T03:03:32;22.50;;;11.10;;
66830;SDS011;53739;44.224;22.528;2023-06-14T03:05:59;13.52;;;9.20;;
66830;SDS011;53739;44.224;22.528;2023-06-14T03:08:30;16.85;;;9.00;;
66830;SDS011;53739;44.224;22.528;2023-06-14T03:11:03;20.85;;;10.35;;
66830;SDS011;53739;44.224;22.528;2023-06-14T03:13:33;17.48;;;9.68;;
66830;SDS011;53739;44.224;22.528;2023-06-14T03:15:59;17.42;;;9.93;;
66830;SDS011;53739;44.224;22.528;2023-06-14T03:18:31;16.95;;;10.32;;
66830;SDS011;53739;44.224;22.528;2023-06-14T03:21:00;18.77;;;9.20;;
66830;SDS011;53739;44.224;22.528;2023-06-14T03:23:27;17.38;;;9.65;;
66830;SDS011;53739;44.224;22.528;2023-06-14T03:25:53;16.35;;;10.40;;
66830;SDS011;53739;44.224;22.528;2023-06-14T03:28:21;21.02;;;10.52;;
66830;SDS011;53739;44.224;22.528;2023-06-14T03:30:47;22.08;;;10.95;;
66830;SDS011;53739;44.224;22.528;2023-06-14T03:33:13;13.45;;;10.75;;
66830;SDS011;53739;44.224;22.528;2023-06-14T03:35:40;15.80;;;10.38;;
66830;SDS011;53739;44.224;22.528;2023-06-14T03:38:06;16.48;;;9.88;;
66830;SDS011;53739;44.224;22.528;2023-06-14T03:40:32;13.00;;;10.93;;
66830;SDS011;53739;44.224;22.528;2023-06-14T03:42:59;15.82;;;10.63;;
66830;SDS011;53739;44.224;22.528;2023-06-14T03:45:25;12.98;;;9.88;;
66830;SDS011;53739;44.224;22.528;2023-06-14T03:47:51;17.20;;;11.68;;
66830;SDS011;53739;44.224;22.528;2023-06-14T03:50:17;13.63;;;10.18;;
66830;SDS011;53739;44.224;22.528;2023-06-14T03:52:44;14.93;;;9.48;;
66830;SDS011;53739;44.224;22.528;2023-06-14T03:55:10;22.40;;;9.75;;
66830;SDS011;53739;44.224;22.528;2023-06-14T03:57:38;13.85;;;8.93;;
66830;SDS011;53739;44.224;22.528;2023-06-14T04:00:04;16.23;;;9.30;;
66830;SDS011;53739;44.224;22.528;2023-06-14T04:02:31;15.95;;;9.15;;
66830;SDS011;53739;44.224;22.528;2023-06-14T04:04:57;15.77;;;9.38;;
66830;SDS011;53739;44.224;22.528;2023-06-14T04:07:23;15.27;;;9.73;;
66830;SDS011;53739;44.224;22.528;2023-06-14T04:09:50;12.63;;;9.10;;
66830;SDS011;53739;44.224;22.528;2023-06-14T04:12:16;14.18;;;9.18;;
66830;SDS011;53739;44.224;22.528;2023-06-14T04:14:42;13.88;;;9.98;;
66830;SDS011;53739;44.224;22.528;2023-06-14T04:17:08;14.20;;;9.77;;
66830;SDS011;53739;44.224;22.528;2023-06-14T04:19:35;20.35;;;9.52;;
66830;SDS011;53739;44.224;22.528;2023-06-14T04:22:01;14.13;;;10.18;;
66830;SDS011;53739;44.224;22.528;2023-06-14T04:24:28;17.25;;;10.10;;
66830;SDS011;53739;44.224;22.528;2023-06-14T04:27:00;13.15;;;10.57;;
66830;SDS011;53739;44.224;22.528;2023-06-14T04:29:26;15.65;;;10.10;;
66830;SDS011;53739;44.224;22.528;2023-06-14T04:31:54;13.88;;;10.93;;
66830;SDS011;53739;44.224;22.528;2023-06-14T04:34:25;18.45;;;10.35;;
66830;SDS011;53739;44.224;22.528;2023-06-14T04:36:55;21.98;;;11.13;;
66830;SDS011;53739;44.224;22.528;2023-06-14T04:39:22;20.58;;;11.68;;
66830;SDS011;53739;44.224;22.528;2023-06-14T04:41:49;16.90;;;11.75;;
66830;SDS011;53739;44.224;22.528;2023-06-14T04:44:18;24.65;;;12.43;;
66830;SDS011;53739;44.224;22.528;2023-06-14T04:46:49;19.63;;;12.50;;
66830;SDS011;53739;44.224;22.528;2023-06-14T04:49:16;17.80;;;11.05;;
66830;SDS011;53739;44.224;22.528;2023-06-14T04:51:43;14.70;;;11.57;;
66830;SDS011;53739;44.224;22.528;2023-06-14T04:54:10;22.10;;;10.68;;
66830;SDS011;53739;44.224;22.528;2023-06-14T04:56:40;24.83;;;11.45;;
66830;SDS011;53739;44.224;22.528;2023-06-14T04:59:11;16.80;;;11.48;;
66830;SDS011;53739;44.224;22.528;2023-06-14T05:01:38;17.33;;;10.82;;
66830;SDS011;53739;44.224;22.528;2023-06-14T05:04:04;21.48;;;13.15;;
66830;SDS011;53739;44.224;22.528;2023-06-14T05:06:30;15.15;;;11.75;;
66830;SDS011;53739;44.224;22.528;2023-06-14T05:08:56;19.50;;;10.68;;
66830;SDS011;53739;44.224;22.528;2023-06-14T05:11:22;20.60;;;11.50;;
66830;SDS011;53739;44.224;22.528;2023-06-14T05:13:52;18.27;;;12.63;;
66830;SDS011;53739;44.224;22.528;2023-06-14T05:16:18;16.55;;;11.57;;
66830;SDS011;53739;44.224;22.528;2023-06-14T05:18:45;21.15;;;12.82;;
66830;SDS011;53739;44.224;22.528;2023-06-14T05:21:12;19.63;;;13.15;;
66830;SDS011;53739;44.224;22.528;2023-06-14T05:23:42;21.88;;;12.80;;
66830;SDS011;53739;44.224;22.528;2023-06-14T05:26:09;17.92;;;12.73;;
66830;SDS011;53739;44.224;22.528;2023-06-14T05:28:36;17.48;;;11.95;;
66830;SDS011;53739;44.224;22.528;2023-06-14T05:31:02;19.52;;;12.60;;
66830;SDS011;53739;44.224;22.528;2023-06-14T05:33:28;22.38;;;11.63;;
66830;SDS011;53739;44.224;22.528;2023-06-14T05:35:54;18.75;;;10.90;;
66830;SDS011;53739;44.224;22.528;2023-06-14T05:38:20;15.93;;;11.65;;
66830;SDS011;53739;44.224;22.528;2023-06-14T05:40:47;18.15;;;11.05;;
66830;SDS011;53739;44.224;22.528;2023-06-14T05:43:13;16.20;;;10.88;;
66830;SDS011;53739;44.224;22.528;2023-06-14T05:45:39;20.90;;;11.40;;
66830;SDS011;53739;44.224;22.528;2023-06-14T05:48:05;19.38;;;11.27;;
66830;SDS011;53739;44.224;22.528;2023-06-14T05:50:31;15.25;;;13.27;;
66830;SDS011;53739;44.224;22.528;2023-06-14T05:52:57;13.85;;;11.68;;
66830;SDS011;53739;44.224;22.528;2023-06-14T05:55:24;14.57;;;12.23;;
66830;SDS011;53739;44.224;22.528;2023-06-14T05:57:50;17.10;;;11.20;;
66830;SDS011;53739;44.224;22.528;2023-06-14T06:00:17;16.50;;;12.27;;
66830;SDS011;53739;44.224;22.528;2023-06-14T06:02:44;21.42;;;12.90;;
66830;SDS011;53739;44.224;22.528;2023-06-14T06:05:13;15.05;;;11.80;;
66830;SDS011;53739;44.224;22.528;2023-06-14T06:07:40;16.83;;;11.93;;
66830;SDS011;53739;44.224;22.528;2023-06-14T06:10:07;13.27;;;10.48;;
66830;SDS011;53739;44.224;22.528;2023-06-14T06:12:33;17.08;;;12.55;;
66830;SDS011;53739;44.224;22.528;2023-06-14T06:14:59;12.98;;;11.60;;
66830;SDS011;53739;44.224;22.528;2023-06-14T06:17:26;15.02;;;12.30;;
66830;SDS011;53739;44.224;22.528;2023-06-14T06:19:52;14.65;;;12.30;;
66830;SDS011;53739;44.224;22.528;2023-06-14T06:22:18;18.95;;;13.38;;
66830;SDS011;53739;44.224;22.528;2023-06-14T06:24:44;15.07;;;13.52;;
66830;SDS011;53739;44.224;22.528;2023-06-14T06:27:11;18.92;;;13.73;;
66830;SDS011;53739;44.224;22.528;2023-06-14T06:29:37;19.63;;;13.38;;
66830;SDS011;53739;44.224;22.528;2023-06-14T06:32:04;15.10;;;11.48;;
66830;SDS011;53739;44.224;22.528;2023-06-14T06:34:30;15.93;;;11.60;;
66830;SDS011;53739;44.224;22.528;2023-06-14T06:36:56;14.80;;;10.93;;
66830;SDS011;53739;44.224;22.528;2023-06-14T06:39:22;21.83;;;11.35;;
66830;SDS011;53739;44.224;22.528;2023-06-14T06:41:48;14.95;;;10.68;;
66830;SDS011;53739;44.224;22.528;2023-06-14T06:44:14;16.27;;;11.43;;
66830;SDS011;53739;44.224;22.528;2023-06-14T06:46:40;14.45;;;11.68;;
66830;SDS011;53739;44.224;22.528;2023-06-14T06:49:08;19.77;;;11.73;;
66830;SDS011;53739;44.224;22.528;2023-06-14T06:51:34;18.88;;;11.63;;
66830;SDS011;53739;44.224;22.528;2023-06-14T06:54:03;17.63;;;12.07;;
66830;SDS011;53739;44.224;22.528;2023-06-14T06:56:31;14.52;;;11.85;;
66830;SDS011;53739;44.224;22.528;2023-06-14T06:58:57;11.70;;;10.40;;
66830;SDS011;53739;44.224;22.528;2023-06-14T07:01:23;13.85;;;10.68;;
66830;SDS011;53739;44.224;22.528;2023-06-14T07:03:49;13.77;;;10.60;;
66830;SDS011;53739;44.224;22.528;2023-06-14T07:06:15;14.43;;;10.30;;
66830;SDS011;53739;44.224;22.528;2023-06-14T07:08:44;20.23;;;10.95;;
66830;SDS011;53739;44.224;22.528;2023-06-14T07:11:10;11.35;;;9.13;;
66830;SDS011;53739;44.224;22.528;2023-06-14T07:13:36;22.52;;;9.95;;
66830;SDS011;53739;44.224;22.528;2023-06-14T07:16:03;14.73;;;9.45;;
66830;SDS011;53739;44.224;22.528;2023-06-14T07:18:30;12.40;;;9.70;;
66830;SDS011;53739;44.224;22.528;2023-06-14T07:20:56;10.10;;;8.88;;
66830;SDS011;53739;44.224;22.528;2023-06-14T07:23:23;10.73;;;8.55;;
66830;SDS011;53739;44.224;22.528;2023-06-14T07:25:49;14.65;;;9.80;;
66830;SDS011;53739;44.224;22.528;2023-06-14T07:28:16;12.40;;;8.75;;
66830;SDS011;53739;44.224;22.528;2023-06-14T07:30:43;11.90;;;7.82;;
66830;SDS011;53739;44.224;22.528;2023-06-14T07:33:09;8.00;;;7.20;;
66830;SDS011;53739;44.224;22.528;2023-06-14T07:35:37;14.48;;;7.05;;
66830;SDS011;53739;44.224;22.528;2023-06-14T07:38:03;9.65;;;6.85;;
66830;SDS011;53739;44.224;22.528;2023-06-14T07:40:29;12.07;;;7.88;;
66830;SDS011;53739;44.224;22.528;2023-06-14T07:42:55;9.13;;;6.97;;
66830;SDS011;53739;44.224;22.528;2023-06-14T07:45:21;9.85;;;8.23;;
66830;SDS011;53739;44.224;22.528;2023-06-14T07:47:48;9.13;;;7.10;;
66830;SDS011;53739;44.224;22.528;2023-06-14T07:50:15;12.50;;;7.40;;
66830;SDS011;53739;44.224;22.528;2023-06-14T07:52:41;9.27;;;7.70;;
66830;SDS011;53739;44.224;22.528;2023-06-14T07:55:07;19.08;;;9.07;;
66830;SDS011;53739;44.224;22.528;2023-06-14T07:57:33;12.38;;;7.85;;
66830;SDS011;53739;44.224;22.528;2023-06-14T08:00:00;15.00;;;8.95;;
66830;SDS011;53739;44.224;22.528;2023-06-14T08:02:26;12.85;;;8.15;;
66830;SDS011;53739;44.224;22.528;2023-06-14T08:04:52;10.02;;;7.85;;
66830;SDS011;53739;44.224;22.528;2023-06-14T08:07:19;11.40;;;8.68;;
66830;SDS011;53739;44.224;22.528;2023-06-14T08:09:45;13.80;;;8.98;;
66830;SDS011;53739;44.224;22.528;2023-06-14T08:12:11;12.85;;;9.30;;
66830;SDS011;53739;44.224;22.528;2023-06-14T08:14:39;12.02;;;9.32;;
66830;SDS011;53739;44.224;22.528;2023-06-14T08:17:05;13.88;;;8.50;;
66830;SDS011;53739;44.224;22.528;2023-06-14T08:19:31;16.02;;;9.73;;
66830;SDS011;53739;44.224;22.528;2023-06-14T08:21:57;12.80;;;9.20;;
66830;SDS011;53739;44.224;22.528;2023-06-14T08:24:23;18.20;;;11.00;;
66830;SDS011;53739;44.224;22.528;2023-06-14T08:26:50;22.20;;;10.98;;
66830;SDS011;53739;44.224;22.528;2023-06-14T08:29:16;19.15;;;11.23;;
66830;SDS011;53739;44.224;22.528;2023-06-14T08:31:45;18.35;;;11.75;;
66830;SDS011;53739;44.224;22.528;2023-06-14T08:34:11;17.45;;;11.73;;
66830;SDS011;53739;44.224;22.528;2023-06-14T08:36:37;20.30;;;11.23;;
66830;SDS011;53739;44.224;22.528;2023-06-14T08:39:03;14.40;;;9.93;;
66830;SDS011;53739;44.224;22.528;2023-06-14T08:41:30;15.50;;;11.10;;
66830;SDS011;53739;44.224;22.528;2023-06-14T08:43:57;16.63;;;11.85;;
66830;SDS011;53739;44.224;22.528;2023-06-14T08:46:25;13.45;;;10.82;;
66830;SDS011;53739;44.224;22.528;2023-06-14T08:48:52;12.80;;;9.93;;
66830;SDS011;53739;44.224;22.528;2023-06-14T08:51:24;19.42;;;10.98;;
66830;SDS011;53739;44.224;22.528;2023-06-14T08:53:55;15.77;;;12.15;;
66830;SDS011;53739;44.224;22.528;2023-06-14T08:56:26;18.92;;;12.00;;
66830;SDS011;53739;44.224;22.528;2023-06-14T08:58:54;16.90;;;10.88;;
66830;SDS011;53739;44.224;22.528;2023-06-14T09:01:21;15.10;;;10.45;;
66830;SDS011;53739;44.224;22.528;2023-06-14T09:03:49;10.82;;;9.68;;
66830;SDS011;53739;44.224;22.528;2023-06-14T09:06:15;17.13;;;10.35;;
66830;SDS011;53739;44.224;22.528;2023-06-14T09:08:43;19.70;;;11.90;;
66830;SDS011;53739;44.224;22.528;2023-06-14T09:11:10;14.80;;;11.77;;
66830;SDS011;53739;44.224;22.528;2023-06-14T09:13:37;17.65;;;12.23;;
66830;SDS011;53739;44.224;22.528;2023-06-14T09:16:04;17.00;;;10.27;;
66830;SDS011;53739;44.224;22.528;2023-06-14T09:21:03;17.83;;;10.77;;
66830;SDS011;53739;44.224;22.528;2023-06-14T09:23:33;13.90;;;9.85;;
66830;SDS011;53739;44.224;22.528;2023-06-14T09:25:59;15.23;;;10.82;;
66830;SDS011;53739;44.224;22.528;2023-06-14T09:28:28;14.77;;;9.73;;
66830;SDS011;53739;44.224;22.528;2023-06-14T09:30:55;13.30;;;10.45;;
66830;SDS011;53739;44.224;22.528;2023-06-14T09:33:21;16.08;;;10.88;;
66830;SDS011;53739;44.224;22.528;2023-06-14T09:35:50;14.30;;;10.57;;
66830;SDS011;53739;44.224;22.528;2023-06-14T09:38:17;18.63;;;10.77;;
66830;SDS011;53739;44.224;22.528;2023-06-14T09:40:43;14.38;;;10.85;;
66830;SDS011;53739;44.224;22.528;2023-06-14T09:43:10;14.52;;;10.50;;
66830;SDS011;53739;44.224;22.528;2023-06-14T09:45:36;12.57;;;11.27;;
66830;SDS011;53739;44.224;22.528;2023-06-14T09:48:05;12.77;;;10.50;;
66830;SDS011;53739;44.224;22.528;2023-06-14T09:50:32;14.23;;;10.32;;
66830;SDS011;53739;44.224;22.528;2023-06-14T09:53:05;17.67;;;10.50;;
66830;SDS011;53739;44.224;22.528;2023-06-14T09:55:34;14.43;;;10.00;;
66830;SDS011;53739;44.224;22.528;2023-06-14T09:58:00;11.95;;;9.43;;
66830;SDS011;53739;44.224;22.528;2023-06-14T10:00:28;15.13;;;9.80;;
66830;SDS011;53739;44.224;22.528;2023-06-14T10:02:57;15.20;;;9.82;;
66830;SDS011;53739;44.224;22.528;2023-06-14T10:05:26;14.48;;;9.90;;
66830;SDS011;53739;44.224;22.528;2023-06-14T10:07:59;15.35;;;9.88;;
66830;SDS011;53739;44.224;22.528;2023-06-14T10:10:25;16.15;;;9.23;;
66830;SDS011;53739;44.224;22.528;2023-06-14T10:12:52;22.65;;;10.57;;
66830;SDS011;53739;44.224;22.528;2023-06-14T10:15:20;15.45;;;9.13;;
66830;SDS011;53739;44.224;22.528;2023-06-14T10:18:10;12.10;;;8.63;;
66830;SDS011;53739;44.224;22.528;2023-06-14T10:23:06;9.82;;;8.00;;
66830;SDS011;53739;44.224;22.528;2023-06-14T10:25:34;9.63;;;7.25;;
66830;SDS011;53739;44.224;22.528;2023-06-14T10:28:16;12.82;;;7.53;;
66830;SDS011;53739;44.224;22.528;2023-06-14T10:31:01;9.87;;;7.20;;
66830;SDS011;53739;44.224;22.528;2023-06-14T10:33:29;7.90;;;6.22;;
66830;SDS011;53739;44.224;22.528;2023-06-14T10:39:06;8.63;;;6.63;;
66830;SDS011;53739;44.224;22.528;2023-06-14T10:41:37;9.48;;;6.78;;
66830;SDS011;53739;44.224;22.528;2023-06-14T10:46:38;8.98;;;7.22;;
66830;SDS011;53739;44.224;22.528;2023-06-14T10:49:05;12.65;;;7.25;;
66830;SDS011;53739;44.224;22.528;2023-06-14T10:51:38;9.10;;;7.30;;
66830;SDS011;53739;44.224;22.528;2023-06-14T10:54:14;10.65;;;7.93;;
66830;SDS011;53739;44.224;22.528;2023-06-14T10:56:47;7.82;;;7.03;;
66830;SDS011;53739;44.224;22.528;2023-06-14T10:59:13;11.15;;;8.38;;
66830;SDS011;53739;44.224;22.528;2023-06-14T11:02:27;9.80;;;7.55;;
66830;SDS011;53739;44.224;22.528;2023-06-14T11:07:51;9.95;;;6.68;;
66830;SDS011;53739;44.224;22.528;2023-06-14T11:12:39;9.43;;;8.23;;
66830;SDS011;53739;44.224;22.528;2023-06-14T11:15:07;12.68;;;7.57;;
66830;SDS011;53739;44.224;22.528;2023-06-14T11:17:33;11.13;;;8.40;;
66830;SDS011;53739;44.224;22.528;2023-06-14T11:20:09;11.95;;;8.15;;
66830;SDS011;53739;44.224;22.528;2023-06-14T11:22:42;9.90;;;8.68;;
66830;SDS011;53739;44.224;22.528;2023-06-14T11:25:09;10.52;;;9.05;;
66830;SDS011;53739;44.224;22.528;2023-06-14T11:27:45;12.90;;;8.90;;
66830;SDS011;53739;44.224;22.528;2023-06-14T11:30:12;11.05;;;8.60;;
66830;SDS011;53739;44.224;22.528;2023-06-14T11:32:39;13.80;;;9.25;;
66830;SDS011;53739;44.224;22.528;2023-06-14T11:35:06;12.65;;;9.07;;
66830;SDS011;53739;44.224;22.528;2023-06-14T11:37:32;9.93;;;8.68;;
66830;SDS011;53739;44.224;22.528;2023-06-14T11:39:59;12.30;;;9.05;;
66830;SDS011;53739;44.224;22.528;2023-06-14T11:42:29;10.13;;;8.98;;
66830;SDS011;53739;44.224;22.528;2023-06-14T11:44:55;11.80;;;9.60;;
66830;SDS011;53739;44.224;22.528;2023-06-14T11:47:24;12.15;;;8.48;;
66830;SDS011;53739;44.224;22.528;2023-06-14T11:49:50;11.02;;;8.95;;
66830;SDS011;53739;44.224;22.528;2023-06-14T11:52:17;9.88;;;8.55;;
66830;SDS011;53739;44.224;22.528;2023-06-14T11:54:44;10.63;;;8.52;;
66830;SDS011;53739;44.224;22.528;2023-06-14T11:57:10;9.85;;;8.68;;
66830;SDS011;53739;44.224;22.528;2023-06-14T11:59:40;14.23;;;9.40;;
66830;SDS011;53739;44.224;22.528;2023-06-14T12:02:06;12.80;;;11.40;;
66830;SDS011;53739;44.224;22.528;2023-06-14T12:04:33;12.05;;;9.55;;
66830;SDS011;53739;44.224;22.528;2023-06-14T12:07:12;12.95;;;9.25;;
66830;SDS011;53739;44.224;22.528;2023-06-14T12:09:40;14.65;;;10.15;;
66830;SDS011;53739;44.224;22.528;2023-06-14T12:12:08;14.88;;;10.13;;
66830;SDS011;53739;44.224;22.528;2023-06-14T12:14:35;13.18;;;10.27;;
66830;SDS011;53739;44.224;22.528;2023-06-14T12:17:08;10.93;;;9.82;;
66830;SDS011;53739;44.224;22.528;2023-06-14T12:19:43;11.23;;;9.90;;
66830;SDS011;53739;44.224;22.528;2023-06-14T12:22:10;10.88;;;9.13;;
66830;SDS011;53739;44.224;22.528;2023-06-14T12:24:36;13.05;;;9.80;;
66830;SDS011;53739;44.224;22.528;2023-06-14T12:27:03;14.00;;;10.82;;
66830;SDS011;53739;44.224;22.528;2023-06-14T12:29:29;13.40;;;10.20;;
66830;SDS011;53739;44.224;22.528;2023-06-14T12:31:56;12.35;;;10.27;;
66830;SDS011;53739;44.224;22.528;2023-06-14T12:34:25;11.90;;;10.38;;
66830;SDS011;53739;44.224;22.528;2023-06-14T12:36:52;12.23;;;10.68;;
66830;SDS011;53739;44.224;22.528;2023-06-14T12:39:19;11.88;;;10.65;;
66830;SDS011;53739;44.224;22.528;2023-06-14T12:41:46;15.07;;;10.45;;
66830;SDS011;53739;44.224;22.528;2023-06-14T12:44:12;14.80;;;12.80;;
66830;SDS011;53739;44.224;22.528;2023-06-14T12:46:41;14.63;;;12.43;;
66830;SDS011;53739;44.224;22.528;2023-06-14T12:49:09;18.45;;;12.65;;
66830;SDS011;53739;44.224;22.528;2023-06-14T12:51:36;14.05;;;12.23;;
66830;SDS011;53739;44.224;22.528;2023-06-14T12:54:02;14.43;;;12.27;;
66830;SDS011;53739;44.224;22.528;2023-06-14T12:56:28;16.30;;;14.52;;
66830;SDS011;53739;44.224;22.528;2023-06-14T12:58:54;14.25;;;12.75;;
66830;SDS011;53739;44.224;22.528;2023-06-14T13:01:23;16.35;;;13.45;;
66830;SDS011;53739;44.224;22.528;2023-06-14T13:03:49;14.18;;;12.68;;
66830;SDS011;53739;44.224;22.528;2023-06-14T13:06:20;14.48;;;12.38;;
66830;SDS011;53739;44.224;22.528;2023-06-14T13:08:53;18.55;;;13.15;;
66830;SDS011;53739;44.224;22.528;2023-06-14T13:11:22;15.48;;;12.10;;
66830;SDS011;53739;44.224;22.528;2023-06-14T13:13:48;15.65;;;12.60;;
66830;SDS011;53739;44.224;22.528;2023-06-14T13:16:14;14.73;;;13.00;;
66830;SDS011;53739;44.224;22.528;2023-06-14T13:18:41;16.25;;;13.13;;
66830;SDS011;53739;44.224;22.528;2023-06-14T13:21:07;17.08;;;13.75;;
66830;SDS011;53739;44.224;22.528;2023-06-14T13:23:33;17.50;;;14.02;;
66830;SDS011;53739;44.224;22.528;2023-06-14T13:25:59;15.27;;;13.77;;
66830;SDS011;53739;44.224;22.528;2023-06-14T13:28:25;16.52;;;13.63;;
66830;SDS011;53739;44.224;22.528;2023-06-14T13:30:51;17.52;;;13.15;;
66830;SDS011;53739;44.224;22.528;2023-06-14T13:33:17;16.27;;;12.75;;
66830;SDS011;53739;44.224;22.528;2023-06-14T13:35:43;14.45;;;12.35;;
66830;SDS011;53739;44.224;22.528;2023-06-14T13:38:10;16.38;;;12.18;;
66830;SDS011;53739;44.224;22.528;2023-06-14T13:40:36;15.57;;;12.80;;
66830;SDS011;53739;44.224;22.528;2023-06-14T13:43:02;16.05;;;12.88;;
66830;SDS011;53739;44.224;22.528;2023-06-14T13:45:28;15.00;;;13.38;;
66830;SDS011;53739;44.224;22.528;2023-06-14T13:47:54;16.40;;;12.27;;
66830;SDS011;53739;44.224;22.528;2023-06-14T13:50:20;16.65;;;13.00;;
66830;SDS011;53739;44.224;22.528;2023-06-14T13:52:46;13.10;;;11.70;;
66830;SDS011;53739;44.224;22.528;2023-06-14T13:55:13;12.88;;;11.57;;
66830;SDS011;53739;44.224;22.528;2023-06-14T13:57:39;15.50;;;12.82;;
66830;SDS011;53739;44.224;22.528;2023-06-14T14:00:05;13.98;;;11.60;;
66830;SDS011;53739;44.224;22.528;2023-06-14T14:02:33;13.65;;;12.25;;
66830;SDS011;53739;44.224;22.528;2023-06-14T14:05:00;16.33;;;12.32;;
66830;SDS011;53739;44.224;22.528;2023-06-14T14:07:26;13.95;;;12.50;;
66830;SDS011;53739;44.224;22.528;2023-06-14T14:09:54;15.25;;;11.73;;
66830;SDS011;53739;44.224;22.528;2023-06-14T14:12:22;14.98;;;12.10;;
66830;SDS011;53739;44.224;22.528;2023-06-14T14:14:50;14.65;;;13.00;;
66830;SDS011;53739;44.224;22.528;2023-06-14T14:17:16;14.52;;;13.02;;
66830;SDS011;53739;44.224;22.528;2023-06-14T14:19:42;16.75;;;15.00;;
66830;SDS011;53739;44.224;22.528;2023-06-14T14:22:08;16.23;;;12.55;;
66830;SDS011;53739;44.224;22.528;2023-06-14T14:24:35;13.48;;;11.60;;
66830;SDS011;53739;44.224;22.528;2023-06-14T14:27:01;15.25;;;13.65;;
66830;SDS011;53739;44.224;22.528;2023-06-14T14:29:27;16.98;;;14.88;;
66830;SDS011;53739;44.224;22.528;2023-06-14T14:31:56;14.77;;;13.25;;
66830;SDS011;53739;44.224;22.528;2023-06-14T14:34:23;13.85;;;12.45;;